Cozumel, Mexico

5:05 PM EST on August 23, 2016 (GMT -0500)
Cozumel International | | Change Station

Elev 16 ft 20.52 °N, 86.93 °W | Updated 25 minutes ago

Scattered Clouds
Scattered Clouds
84 °F
Feels Like 94 °F
N
14
Wind Variable Wind from ENE

Today
High -- | Low -- °F
--% Chance of Precip.
Yesterday
High -- | Low -- °F
Precip. -- in
Pressure 30.03 in
Visibility 8.0 miles
Clouds Scattered Clouds 1500 ft
Heat Index 94 °F
Dew Point 77 °F
Humidity 79%
Rainfall 0.00 in
Snow Depth Not available.
6:29 AM 7:10 PM
Waning Gibbous, 64% visible
METAR MMCZ 232140Z 07012KT 8SM SCT015 29/25 A3003 RMK 8/100
Pressure 30.03 in
Visibility 8.0 miles
Clouds Scattered Clouds 1500 ft
Heat Index 94 °F
Dew Point 77 °F
Humidity 79%
Rainfall 0.00 in
Snow Depth Not available.
6:29 AM 7:10 PM
Waning Gibbous, 64% visible
METAR MMCZ 232140Z 07012KT 8SM SCT015 29/25 A3003 RMK 8/100

10-Day Weather Forecast

No radar image for this location.
×

Almanac

Astronomy

Aug. 23, 2016 Rise Set
Actual Time
Civil Twilight
Nautical Twilight
Astronomical Twilight
Moon
Length of Visible Light
Length of Day
Tomorrow will be .
, % of the Moon is Illuminated

Today's Extremes

Country Highs Country Lows

Community

WunderPhotos

Upload Photos

1,934,476 photos uploaded!

WunderBlog® & News

Nearby

Air Quality

  Air Quality AQ Index Pollutant
Not available.

Snow Depth

Station Depth Elevation

Earthquake Activity

City Distance Mag. Time & Date
Minimum magnitude displayed is 2.5.

Coastal Water Temperatures

Place Temperature

Stations

Nearby Weather Stations

Station Location Temp. Windchill Dew Point Humidity Wind Precip. Elev Updated Type